sensor_id;sensor_type;location;lat;lon;timestamp;P1;durP1;ratioP1;P2;durP2;ratioP2
61104;SDS011;46987;32.638;-115.438;2023-04-24T00:01:47;6.75;;;1.48;;
61104;SDS011;46987;32.638;-115.438;2023-04-24T00:04:14;6.75;;;2.20;;
61104;SDS011;46987;32.638;-115.438;2023-04-24T00:06:42;6.18;;;1.80;;
61104;SDS011;46987;32.638;-115.438;2023-04-24T00:09:09;6.75;;;1.63;;
61104;SDS011;46987;32.638;-115.438;2023-04-24T00:11:36;7.18;;;1.92;;
61104;SDS011;46987;32.638;-115.438;2023-04-24T00:14:05;6.60;;;1.90;;
61104;SDS011;46987;32.638;-115.438;2023-04-24T00:16:33;7.47;;;1.80;;
61104;SDS011;46987;32.638;-115.438;2023-04-24T00:19:00;12.02;;;2.00;;
61104;SDS011;46987;32.638;-115.438;2023-04-24T00:21:27;8.02;;;1.73;;
61104;SDS011;46987;32.638;-115.438;2023-04-24T00:23:53;10.63;;;2.28;;
61104;SDS011;46987;32.638;-115.438;2023-04-24T00:26:20;5.78;;;1.83;;
61104;SDS011;46987;32.638;-115.438;2023-04-24T00:28:47;10.25;;;1.92;;
61104;SDS011;46987;32.638;-115.438;2023-04-24T00:31:13;14.27;;;2.28;;
61104;SDS011;46987;32.638;-115.438;2023-04-24T00:33:42;6.93;;;1.52;;
61104;SDS011;46987;32.638;-115.438;2023-04-24T00:36:08;8.45;;;1.83;;
61104;SDS011;46987;32.638;-115.438;2023-04-24T00:38:35;9.93;;;2.13;;
61104;SDS011;46987;32.638;-115.438;2023-04-24T00:41:03;9.48;;;2.33;;
61104;SDS011;46987;32.638;-115.438;2023-04-24T00:43:29;7.20;;;1.90;;
61104;SDS011;46987;32.638;-115.438;2023-04-24T00:45:56;4.95;;;1.50;;
61104;SDS011;46987;32.638;-115.438;2023-04-24T00:48:23;7.65;;;1.65;;
61104;SDS011;46987;32.638;-115.438;2023-04-24T00:50:52;5.70;;;1.17;;
61104;SDS011;46987;32.638;-115.438;2023-04-24T00:53:19;7.90;;;1.50;;
61104;SDS011;46987;32.638;-115.438;2023-04-24T00:55:46;7.32;;;1.23;;
61104;SDS011;46987;32.638;-115.438;2023-04-24T00:58:12;5.32;;;1.40;;
61104;SDS011;46987;32.638;-115.438;2023-04-24T01:00:39;8.05;;;1.77;;
61104;SDS011;46987;32.638;-115.438;2023-04-24T01:03:07;7.45;;;1.50;;
61104;SDS011;46987;32.638;-115.438;2023-04-24T01:05:33;5.95;;;1.63;;
61104;SDS011;46987;32.638;-115.438;2023-04-24T01:08:02;9.38;;;2.17;;
61104;SDS011;46987;32.638;-115.438;2023-04-24T01:10:31;7.60;;;1.60;;
61104;SDS011;46987;32.638;-115.438;2023-04-24T01:12:59;9.88;;;1.60;;
61104;SDS011;46987;32.638;-115.438;2023-04-24T01:15:26;8.77;;;2.15;;
61104;SDS011;46987;32.638;-115.438;2023-04-24T01:17:52;14.05;;;2.20;;
61104;SDS011;46987;32.638;-115.438;2023-04-24T01:20:20;6.80;;;1.90;;
61104;SDS011;46987;32.638;-115.438;2023-04-24T01:22:49;7.57;;;1.80;;
61104;SDS011;46987;32.638;-115.438;2023-04-24T01:25:16;10.23;;;2.63;;
61104;SDS011;46987;32.638;-115.438;2023-04-24T01:27:42;15.48;;;2.83;;
61104;SDS011;46987;32.638;-115.438;2023-04-24T01:30:11;8.85;;;1.95;;
61104;SDS011;46987;32.638;-115.438;2023-04-24T01:32:38;11.02;;;2.08;;
61104;SDS011;46987;32.638;-115.438;2023-04-24T01:35:05;11.30;;;2.72;;
61104;SDS011;46987;32.638;-115.438;2023-04-24T01:37:34;10.80;;;2.13;;
61104;SDS011;46987;32.638;-115.438;2023-04-24T01:40:05;12.07;;;2.85;;
61104;SDS011;46987;32.638;-115.438;2023-04-24T01:42:32;9.68;;;3.85;;
61104;SDS011;46987;32.638;-115.438;2023-04-24T01:44:59;12.30;;;2.88;;
61104;SDS011;46987;32.638;-115.438;2023-04-24T01:47:26;10.35;;;2.95;;
61104;SDS011;46987;32.638;-115.438;2023-04-24T01:49:52;9.02;;;2.72;;
61104;SDS011;46987;32.638;-115.438;2023-04-24T01:52:19;7.72;;;2.25;;
61104;SDS011;46987;32.638;-115.438;2023-04-24T01:54:47;3.90;;;1.25;;
61104;SDS011;46987;32.638;-115.438;2023-04-24T01:57:15;15.68;;;2.45;;
61104;SDS011;46987;32.638;-115.438;2023-04-24T01:59:42;11.82;;;2.28;;
61104;SDS011;46987;32.638;-115.438;2023-04-24T02:02:09;8.70;;;1.85;;
61104;SDS011;46987;32.638;-115.438;2023-04-24T02:04:35;8.45;;;2.03;;
61104;SDS011;46987;32.638;-115.438;2023-04-24T02:07:02;13.23;;;2.08;;
61104;SDS011;46987;32.638;-115.438;2023-04-24T02:09:31;11.70;;;2.28;;
61104;SDS011;46987;32.638;-115.438;2023-04-24T02:11:58;7.93;;;2.10;;
61104;SDS011;46987;32.638;-115.438;2023-04-24T02:14:26;10.02;;;2.55;;
61104;SDS011;46987;32.638;-115.438;2023-04-24T02:16:53;11.20;;;2.50;;
61104;SDS011;46987;32.638;-115.438;2023-04-24T02:19:20;13.48;;;2.53;;
61104;SDS011;46987;32.638;-115.438;2023-04-24T02:21:47;17.52;;;3.83;;
61104;SDS011;46987;32.638;-115.438;2023-04-24T02:24:13;17.73;;;3.80;;
61104;SDS011;46987;32.638;-115.438;2023-04-24T02:26:44;12.23;;;3.28;;
61104;SDS011;46987;32.638;-115.438;2023-04-24T02:29:11;11.27;;;2.05;;
61104;SDS011;46987;32.638;-115.438;2023-04-24T02:31:40;15.20;;;3.08;;
61104;SDS011;46987;32.638;-115.438;2023-04-24T02:34:06;14.35;;;2.83;;
61104;SDS011;46987;32.638;-115.438;2023-04-24T02:36:33;15.77;;;3.60;;
61104;SDS011;46987;32.638;-115.438;2023-04-24T02:38:59;9.77;;;2.10;;
61104;SDS011;46987;32.638;-115.438;2023-04-24T02:41:27;16.77;;;2.38;;
61104;SDS011;46987;32.638;-115.438;2023-04-24T02:43:58;15.50;;;3.30;;
61104;SDS011;46987;32.638;-115.438;2023-04-24T02:46:25;14.27;;;4.15;;
61104;SDS011;46987;32.638;-115.438;2023-04-24T02:48:54;17.85;;;2.83;;
61104;SDS011;46987;32.638;-115.438;2023-04-24T02:51:20;15.68;;;3.33;;
61104;SDS011;46987;32.638;-115.438;2023-04-24T02:53:47;13.45;;;3.13;;
61104;SDS011;46987;32.638;-115.438;2023-04-24T02:56:14;11.30;;;3.30;;
61104;SDS011;46987;32.638;-115.438;2023-04-24T02:58:40;11.07;;;2.80;;
61104;SDS011;46987;32.638;-115.438;2023-04-24T03:01:08;11.30;;;2.90;;
61104;SDS011;46987;32.638;-115.438;2023-04-24T03:03:36;8.57;;;3.00;;
61104;SDS011;46987;32.638;-115.438;2023-04-24T03:06:05;10.35;;;3.20;;
61104;SDS011;46987;32.638;-115.438;2023-04-24T03:08:31;8.75;;;3.10;;
61104;SDS011;46987;32.638;-115.438;2023-04-24T03:10:58;11.73;;;3.08;;
61104;SDS011;46987;32.638;-115.438;2023-04-24T03:13:25;9.52;;;2.90;;
61104;SDS011;46987;32.638;-115.438;2023-04-24T03:15:51;7.65;;;2.65;;
61104;SDS011;46987;32.638;-115.438;2023-04-24T03:18:20;9.20;;;2.97;;
61104;SDS011;46987;32.638;-115.438;2023-04-24T03:20:49;12.60;;;7.05;;
61104;SDS011;46987;32.638;-115.438;2023-04-24T03:23:17;8.70;;;3.83;;
61104;SDS011;46987;32.638;-115.438;2023-04-24T03:25:45;8.88;;;2.78;;
61104;SDS011;46987;32.638;-115.438;2023-04-24T03:28:12;13.00;;;2.78;;
61104;SDS011;46987;32.638;-115.438;2023-04-24T03:30:52;8.45;;;2.70;;
61104;SDS011;46987;32.638;-115.438;2023-04-24T03:33:20;10.20;;;2.80;;
61104;SDS011;46987;32.638;-115.438;2023-04-24T03:35:55;12.70;;;3.20;;
61104;SDS011;46987;32.638;-115.438;2023-04-24T03:38:24;11.20;;;3.40;;
61104;SDS011;46987;32.638;-115.438;2023-04-24T03:41:09;9.35;;;2.75;;
61104;SDS011;46987;32.638;-115.438;2023-04-24T03:43:40;8.90;;;4.47;;
61104;SDS011;46987;32.638;-115.438;2023-04-24T03:46:07;16.75;;;4.90;;
61104;SDS011;46987;32.638;-115.438;2023-04-24T03:48:39;16.75;;;3.45;;
61104;SDS011;46987;32.638;-115.438;2023-04-24T03:51:08;12.73;;;3.60;;
61104;SDS011;46987;32.638;-115.438;2023-04-24T03:53:38;11.85;;;3.88;;
61104;SDS011;46987;32.638;-115.438;2023-04-24T03:56:06;9.23;;;2.55;;
61104;SDS011;46987;32.638;-115.438;2023-04-24T03:58:33;8.07;;;3.13;;
61104;SDS011;46987;32.638;-115.438;2023-04-24T04:01:00;12.05;;;2.90;;
61104;SDS011;46987;32.638;-115.438;2023-04-24T04:03:42;14.40;;;3.50;;
61104;SDS011;46987;32.638;-115.438;2023-04-24T04:06:09;11.93;;;4.00;;
61104;SDS011;46987;32.638;-115.438;2023-04-24T04:08:40;11.63;;;3.33;;
61104;SDS011;46987;32.638;-115.438;2023-04-24T04:11:06;10.80;;;3.15;;
61104;SDS011;46987;32.638;-115.438;2023-04-24T04:13:33;13.82;;;3.47;;
61104;SDS011;46987;32.638;-115.438;2023-04-24T04:16:00;10.52;;;2.85;;
61104;SDS011;46987;32.638;-115.438;2023-04-24T04:18:27;8.40;;;3.10;;
61104;SDS011;46987;32.638;-115.438;2023-04-24T04:20:54;13.30;;;3.20;;
61104;SDS011;46987;32.638;-115.438;2023-04-24T04:23:22;11.05;;;2.92;;
61104;SDS011;46987;32.638;-115.438;2023-04-24T04:26:03;11.30;;;2.70;;
61104;SDS011;46987;32.638;-115.438;2023-04-24T04:28:42;10.52;;;3.40;;
61104;SDS011;46987;32.638;-115.438;2023-04-24T04:31:11;11.95;;;3.42;;
61104;SDS011;46987;32.638;-115.438;2023-04-24T04:33:39;10.50;;;2.55;;
61104;SDS011;46987;32.638;-115.438;2023-04-24T04:36:07;11.55;;;3.17;;
61104;SDS011;46987;32.638;-115.438;2023-04-24T04:38:38;10.55;;;2.13;;
61104;SDS011;46987;32.638;-115.438;2023-04-24T04:41:17;13.38;;;2.50;;
61104;SDS011;46987;32.638;-115.438;2023-04-24T04:43:45;15.77;;;2.95;;
61104;SDS011;46987;32.638;-115.438;2023-04-24T04:46:15;9.40;;;2.67;;
61104;SDS011;46987;32.638;-115.438;2023-04-24T04:49:02;9.27;;;2.50;;
61104;SDS011;46987;32.638;-115.438;2023-04-24T04:51:29;9.10;;;2.70;;
61104;SDS011;46987;32.638;-115.438;2023-04-24T04:53:57;7.70;;;2.78;;
61104;SDS011;46987;32.638;-115.438;2023-04-24T04:56:25;7.07;;;2.95;;
61104;SDS011;46987;32.638;-115.438;2023-04-24T04:58:52;9.38;;;3.33;;
61104;SDS011;46987;32.638;-115.438;2023-04-24T05:01:19;10.23;;;3.15;;
61104;SDS011;46987;32.638;-115.438;2023-04-24T05:03:47;8.18;;;2.78;;
61104;SDS011;46987;32.638;-115.438;2023-04-24T05:06:16;8.90;;;2.78;;
61104;SDS011;46987;32.638;-115.438;2023-04-24T05:08:44;13.07;;;3.05;;
61104;SDS011;46987;32.638;-115.438;2023-04-24T05:11:22;6.85;;;2.95;;
61104;SDS011;46987;32.638;-115.438;2023-04-24T05:13:50;8.95;;;2.78;;
61104;SDS011;46987;32.638;-115.438;2023-04-24T05:16:22;8.63;;;2.25;;
61104;SDS011;46987;32.638;-115.438;2023-04-24T05:18:52;10.88;;;2.90;;
61104;SDS011;46987;32.638;-115.438;2023-04-24T05:21:23;8.55;;;2.75;;
61104;SDS011;46987;32.638;-115.438;2023-04-24T05:23:52;6.60;;;2.33;;
61104;SDS011;46987;32.638;-115.438;2023-04-24T05:26:44;10.20;;;2.72;;
61104;SDS011;46987;32.638;-115.438;2023-04-24T05:29:16;6.10;;;2.00;;
61104;SDS011;46987;32.638;-115.438;2023-04-24T05:31:45;7.10;;;1.95;;
61104;SDS011;46987;32.638;-115.438;2023-04-24T05:34:11;6.70;;;1.90;;
61104;SDS011;46987;32.638;-115.438;2023-04-24T05:36:42;10.15;;;2.58;;
61104;SDS011;46987;32.638;-115.438;2023-04-24T05:39:09;8.00;;;2.35;;
61104;SDS011;46987;32.638;-115.438;2023-04-24T05:41:36;5.80;;;2.00;;
61104;SDS011;46987;32.638;-115.438;2023-04-24T05:44:02;5.78;;;1.75;;
61104;SDS011;46987;32.638;-115.438;2023-04-24T05:46:31;9.43;;;2.15;;
61104;SDS011;46987;32.638;-115.438;2023-04-24T05:48:57;8.18;;;2.25;;
61104;SDS011;46987;32.638;-115.438;2023-04-24T05:51:24;10.13;;;2.60;;
61104;SDS011;46987;32.638;-115.438;2023-04-24T05:53:51;8.20;;;2.40;;
61104;SDS011;46987;32.638;-115.438;2023-04-24T05:56:18;8.43;;;2.67;;
61104;SDS011;46987;32.638;-115.438;2023-04-24T05:58:45;8.93;;;2.40;;
61104;SDS011;46987;32.638;-115.438;2023-04-24T06:01:12;9.90;;;2.63;;
61104;SDS011;46987;32.638;-115.438;2023-04-24T06:03:43;9.73;;;2.20;;
61104;SDS011;46987;32.638;-115.438;2023-04-24T06:06:09;6.82;;;1.83;;
61104;SDS011;46987;32.638;-115.438;2023-04-24T06:08:36;7.22;;;2.10;;
61104;SDS011;46987;32.638;-115.438;2023-04-24T06:11:03;12.60;;;2.63;;
61104;SDS011;46987;32.638;-115.438;2023-04-24T06:13:29;6.40;;;2.03;;
61104;SDS011;46987;32.638;-115.438;2023-04-24T06:16:16;8.32;;;1.90;;
61104;SDS011;46987;32.638;-115.438;2023-04-24T06:18:50;8.57;;;2.15;;
61104;SDS011;46987;32.638;-115.438;2023-04-24T06:21:17;7.35;;;1.77;;
61104;SDS011;46987;32.638;-115.438;2023-04-24T06:23:44;11.48;;;1.88;;
61104;SDS011;46987;32.638;-115.438;2023-04-24T06:26:12;5.07;;;1.75;;
61104;SDS011;46987;32.638;-115.438;2023-04-24T06:28:39;8.27;;;2.10;;
61104;SDS011;46987;32.638;-115.438;2023-04-24T06:31:05;6.97;;;1.70;;
61104;SDS011;46987;32.638;-115.438;2023-04-24T06:33:32;10.25;;;1.77;;
61104;SDS011;46987;32.638;-115.438;2023-04-24T06:36:00;7.30;;;1.92;;
61104;SDS011;46987;32.638;-115.438;2023-04-24T06:38:27;5.63;;;1.90;;
61104;SDS011;46987;32.638;-115.438;2023-04-24T06:40:55;8.60;;;2.03;;
61104;SDS011;46987;32.638;-115.438;2023-04-24T06:43:22;7.93;;;2.22;;
61104;SDS011;46987;32.638;-115.438;2023-04-24T06:45:49;8.63;;;1.90;;
61104;SDS011;46987;32.638;-115.438;2023-04-24T06:48:16;6.93;;;1.67;;
61104;SDS011;46987;32.638;-115.438;2023-04-24T06:50:43;6.85;;;1.90;;
61104;SDS011;46987;32.638;-115.438;2023-04-24T06:53:11;7.25;;;2.08;;
61104;SDS011;46987;32.638;-115.438;2023-04-24T06:55:40;8.68;;;2.35;;
61104;SDS011;46987;32.638;-115.438;2023-04-24T06:58:07;4.22;;;1.52;;
61104;SDS011;46987;32.638;-115.438;2023-04-24T07:00:34;5.40;;;1.63;;
61104;SDS011;46987;32.638;-115.438;2023-04-24T07:03:00;7.20;;;2.05;;
61104;SDS011;46987;32.638;-115.438;2023-04-24T07:05:27;8.18;;;2.25;;
61104;SDS011;46987;32.638;-115.438;2023-04-24T07:07:54;8.27;;;2.22;;
61104;SDS011;46987;32.638;-115.438;2023-04-24T07:10:22;7.38;;;1.90;;
61104;SDS011;46987;32.638;-115.438;2023-04-24T07:12:49;10.10;;;2.60;;
61104;SDS011;46987;32.638;-115.438;2023-04-24T07:15:16;8.60;;;2.13;;
61104;SDS011;46987;32.638;-115.438;2023-04-24T07:17:42;7.82;;;2.20;;
61104;SDS011;46987;32.638;-115.438;2023-04-24T07:20:10;10.35;;;2.22;;
61104;SDS011;46987;32.638;-115.438;2023-04-24T07:22:37;7.18;;;1.98;;
61104;SDS011;46987;32.638;-115.438;2023-04-24T07:25:05;16.40;;;3.70;;
61104;SDS011;46987;32.638;-115.438;2023-04-24T07:27:33;13.20;;;2.55;;
61104;SDS011;46987;32.638;-115.438;2023-04-24T07:30:00;6.30;;;1.85;;
61104;SDS011;46987;32.638;-115.438;2023-04-24T07:32:27;9.32;;;2.20;;
61104;SDS011;46987;32.638;-115.438;2023-04-24T07:34:54;10.43;;;2.85;;
61104;SDS011;46987;32.638;-115.438;2023-04-24T07:37:21;7.95;;;2.85;;
61104;SDS011;46987;32.638;-115.438;2023-04-24T07:39:47;13.30;;;4.70;;
61104;SDS011;46987;32.638;-115.438;2023-04-24T07:42:14;12.43;;;4.15;;
61104;SDS011;46987;32.638;-115.438;2023-04-24T07:44:43;13.35;;;4.85;;
61104;SDS011;46987;32.638;-115.438;2023-04-24T07:47:09;10.85;;;3.90;;
61104;SDS011;46987;32.638;-115.438;2023-04-24T07:49:36;13.60;;;5.65;;
61104;SDS011;46987;32.638;-115.438;2023-04-24T07:52:03;11.80;;;5.90;;
61104;SDS011;46987;32.638;-115.438;2023-04-24T07:54:30;27.33;;;6.70;;
61104;SDS011;46987;32.638;-115.438;2023-04-24T07:56:56;28.58;;;6.63;;
61104;SDS011;46987;32.638;-115.438;2023-04-24T07:59:23;26.35;;;7.05;;
61104;SDS011;46987;32.638;-115.438;2023-04-24T08:01:51;23.02;;;7.05;;
61104;SDS011;46987;32.638;-115.438;2023-04-24T08:04:18;30.98;;;8.93;;
61104;SDS011;46987;32.638;-115.438;2023-04-24T08:06:45;29.05;;;8.70;;
61104;SDS011;46987;32.638;-115.438;2023-04-24T08:09:11;30.35;;;8.85;;
61104;SDS011;46987;32.638;-115.438;2023-04-24T08:11:38;36.15;;;9.60;;
61104;SDS011;46987;32.638;-115.438;2023-04-24T08:14:05;32.22;;;10.00;;
61104;SDS011;46987;32.638;-115.438;2023-04-24T08:16:32;37.80;;;10.52;;
61104;SDS011;46987;32.638;-115.438;2023-04-24T08:19:00;39.75;;;10.00;;
61104;SDS011;46987;32.638;-115.438;2023-04-24T08:21:27;41.22;;;10.20;;
61104;SDS011;46987;32.638;-115.438;2023-04-24T08:23:54;30.08;;;9.00;;
61104;SDS011;46987;32.638;-115.438;2023-04-24T08:26:21;30.45;;;9.35;;
61104;SDS011;46987;32.638;-115.438;2023-04-24T08:28:47;37.80;;;10.45;;
61104;SDS011;46987;32.638;-115.438;2023-04-24T08:31:14;36.88;;;9.35;;
61104;SDS011;46987;32.638;-115.438;2023-04-24T08:33:40;34.38;;;10.23;;
61104;SDS011;46987;32.638;-115.438;2023-04-24T08:36:09;31.80;;;8.60;;
61104;SDS011;46987;32.638;-115.438;2023-04-24T08:38:35;25.38;;;7.90;;
61104;SDS011;46987;32.638;-115.438;2023-04-24T08:41:02;35.45;;;8.65;;
61104;SDS011;46987;32.638;-115.438;2023-04-24T08:43:30;30.30;;;9.27;;
61104;SDS011;46987;32.638;-115.438;2023-04-24T08:45:59;34.45;;;10.23;;
61104;SDS011;46987;32.638;-115.438;2023-04-24T08:48:26;34.63;;;8.52;;
61104;SDS011;46987;32.638;-115.438;2023-04-24T08:50:53;23.20;;;8.75;;
61104;SDS011;46987;32.638;-115.438;2023-04-24T08:53:21;26.17;;;8.43;;
61104;SDS011;46987;32.638;-115.438;2023-04-24T08:55:48;25.33;;;8.85;;
61104;SDS011;46987;32.638;-115.438;2023-04-24T08:58:16;29.95;;;8.77;;
61104;SDS011;46987;32.638;-115.438;2023-04-24T09:00:43;28.50;;;9.50;;
61104;SDS011;46987;32.638;-115.438;2023-04-24T09:03:13;27.48;;;10.27;;
61104;SDS011;46987;32.638;-115.438;2023-04-24T09:05:40;24.00;;;9.60;;
61104;SDS011;46987;32.638;-115.438;2023-04-24T09:08:11;28.60;;;10.10;;
61104;SDS011;46987;32.638;-115.438;2023-04-24T09:10:41;25.80;;;9.20;;
61104;SDS011;46987;32.638;-115.438;2023-04-24T09:13:08;27.55;;;8.60;;
61104;SDS011;46987;32.638;-115.438;2023-04-24T09:15:36;23.58;;;8.35;;
61104;SDS011;46987;32.638;-115.438;2023-04-24T09:18:03;22.27;;;8.93;;
61104;SDS011;46987;32.638;-115.438;2023-04-24T09:20:31;19.83;;;8.65;;
61104;SDS011;46987;32.638;-115.438;2023-04-24T09:22:57;28.35;;;8.73;;
61104;SDS011;46987;32.638;-115.438;2023-04-24T09:25:25;31.25;;;9.57;;
61104;SDS011;46987;32.638;-115.438;2023-04-24T09:27:59;22.80;;;9.27;;
61104;SDS011;46987;32.638;-115.438;2023-04-24T09:30:26;24.10;;;9.93;;
61104;SDS011;46987;32.638;-115.438;2023-04-24T09:33:03;20.00;;;8.70;;
61104;SDS011;46987;32.638;-115.438;2023-04-24T09:35:35;24.15;;;8.48;;
61104;SDS011;46987;32.638;-115.438;2023-04-24T09:38:02;24.02;;;8.43;;
61104;SDS011;46987;32.638;-115.438;2023-04-24T09:40:29;22.08;;;7.97;;
61104;SDS011;46987;32.638;-115.438;2023-04-24T09:42:56;22.13;;;8.50;;
61104;SDS011;46987;32.638;-115.438;2023-04-24T09:45:28;18.38;;;7.88;;
61104;SDS011;46987;32.638;-115.438;2023-04-24T09:48:01;23.50;;;7.85;;
61104;SDS011;46987;32.638;-115.438;2023-04-24T09:50:29;19.75;;;7.15;;
61104;SDS011;46987;32.638;-115.438;2023-04-24T09:52:58;21.27;;;8.20;;
61104;SDS011;46987;32.638;-115.438;2023-04-24T09:55:25;24.67;;;7.43;;
61104;SDS011;46987;32.638;-115.438;2023-04-24T09:57:52;17.67;;;8.02;;
61104;SDS011;46987;32.638;-115.438;2023-04-24T10:00:21;17.67;;;7.07;;
61104;SDS011;46987;32.638;-115.438;2023-04-24T10:02:56;20.88;;;6.57;;
61104;SDS011;46987;32.638;-115.438;2023-04-24T10:05:23;18.73;;;7.68;;
61104;SDS011;46987;32.638;-115.438;2023-04-24T10:07:50;19.25;;;6.47;;
61104;SDS011;46987;32.638;-115.438;2023-04-24T10:10:17;20.85;;;7.75;;
61104;SDS011;46987;32.638;-115.438;2023-04-24T10:12:44;24.23;;;9.45;;
61104;SDS011;46987;32.638;-115.438;2023-04-24T10:15:11;21.83;;;8.15;;
61104;SDS011;46987;32.638;-115.438;2023-04-24T10:17:39;24.45;;;9.73;;
61104;SDS011;46987;32.638;-115.438;2023-04-24T10:20:09;26.55;;;10.55;;
61104;SDS011;46987;32.638;-115.438;2023-04-24T10:22:36;31.98;;;14.95;;
61104;SDS011;46987;32.638;-115.438;2023-04-24T10:25:04;26.10;;;15.02;;
61104;SDS011;46987;32.638;-115.438;2023-04-24T10:27:31;28.60;;;14.13;;
61104;SDS011;46987;32.638;-115.438;2023-04-24T10:29:58;27.38;;;13.23;;
61104;SDS011;46987;32.638;-115.438;2023-04-24T10:32:25;25.67;;;12.07;;
61104;SDS011;46987;32.638;-115.438;2023-04-24T10:34:52;28.88;;;12.10;;
61104;SDS011;46987;32.638;-115.438;2023-04-24T10:37:21;29.17;;;12.82;;
61104;SDS011;46987;32.638;-115.438;2023-04-24T10:39:48;30.75;;;12.40;;
61104;SDS011;46987;32.638;-115.438;2023-04-24T10:42:17;31.65;;;13.00;;
61104;SDS011;46987;32.638;-115.438;2023-04-24T10:44:43;30.92;;;13.32;;
61104;SDS011;46987;32.638;-115.438;2023-04-24T10:47:13;29.50;;;12.63;;
61104;SDS011;46987;32.638;-115.438;2023-04-24T10:49:40;33.97;;;12.57;;
61104;SDS011;46987;32.638;-115.438;2023-04-24T10:52:08;31.60;;;13.05;;
61104;SDS011;46987;32.638;-115.438;2023-04-24T10:54:40;32.53;;;13.00;;
61104;SDS011;46987;32.638;-115.438;2023-04-24T10:57:26;27.13;;;12.05;;
61104;SDS011;46987;32.638;-115.438;2023-04-24T11:00:14;30.75;;;12.48;;
61104;SDS011;46987;32.638;-115.438;2023-04-24T11:02:41;32.47;;;12.55;;
61104;SDS011;46987;32.638;-115.438;2023-04-24T11:05:14;29.30;;;13.45;;
61104;SDS011;46987;32.638;-115.438;2023-04-24T11:10:28;27.48;;;11.90;;
61104;SDS011;46987;32.638;-115.438;2023-04-24T11:12:54;32.00;;;13.18;;
61104;SDS011;46987;32.638;-115.438;2023-04-24T11:15:21;29.08;;;12.05;;
61104;SDS011;46987;32.638;-115.438;2023-04-24T11:17:48;31.23;;;11.75;;
61104;SDS011;46987;32.638;-115.438;2023-04-24T11:20:16;27.02;;;11.90;;
61104;SDS011;46987;32.638;-115.438;2023-04-24T11:22:43;25.63;;;11.38;;
61104;SDS011;46987;32.638;-115.438;2023-04-24T11:25:10;21.42;;;10.30;;
61104;SDS011;46987;32.638;-115.438;2023-04-24T11:27:40;29.88;;;11.68;;
61104;SDS011;46987;32.638;-115.438;2023-04-24T11:30:07;30.52;;;12.35;;
61104;SDS011;46987;32.638;-115.438;2023-04-24T11:32:35;33.05;;;12.63;;
61104;SDS011;46987;32.638;-115.438;2023-04-24T11:35:02;31.40;;;15.63;;
61104;SDS011;46987;32.638;-115.438;2023-04-24T11:37:34;33.30;;;17.45;;
61104;SDS011;46987;32.638;-115.438;2023-04-24T11:40:01;32.95;;;17.52;;
61104;SDS011;46987;32.638;-115.438;2023-04-24T11:42:33;30.38;;;16.63;;
61104;SDS011;46987;32.638;-115.438;2023-04-24T11:45:01;30.83;;;15.48;;
61104;SDS011;46987;32.638;-115.438;2023-04-24T11:47:28;27.80;;;13.95;;
61104;SDS011;46987;32.638;-115.438;2023-04-24T11:49:55;23.13;;;12.35;;
61104;SDS011;46987;32.638;-115.438;2023-04-24T11:52:22;23.73;;;11.52;;
61104;SDS011;46987;32.638;-115.438;2023-04-24T11:54:49;23.90;;;10.40;;
61104;SDS011;46987;32.638;-115.438;2023-04-24T11:57:16;28.08;;;10.63;;
61104;SDS011;46987;32.638;-115.438;2023-04-24T11:59:42;20.75;;;9.45;;
61104;SDS011;46987;32.638;-115.438;2023-04-24T12:02:11;22.80;;;8.93;;
61104;SDS011;46987;32.638;-115.438;2023-04-24T12:04:46;18.55;;;8.75;;
61104;SDS011;46987;32.638;-115.438;2023-04-24T12:07:12;19.98;;;7.57;;
61104;SDS011;46987;32.638;-115.438;2023-04-24T12:09:42;19.92;;;7.40;;
61104;SDS011;46987;32.638;-115.438;2023-04-24T12:12:10;25.05;;;7.60;;
61104;SDS011;46987;32.638;-115.438;2023-04-24T12:14:42;25.30;;;9.38;;
61104;SDS011;46987;32.638;-115.438;2023-04-24T12:17:08;31.85;;;15.65;;
61104;SDS011;46987;32.638;-115.438;2023-04-24T12:19:38;34.60;;;16.42;;
61104;SDS011;46987;32.638;-115.438;2023-04-24T12:22:05;34.50;;;15.07;;
61104;SDS011;46987;32.638;-115.438;2023-04-24T12:24:31;32.38;;;16.25;;
61104;SDS011;46987;32.638;-115.438;2023-04-24T12:26:58;31.75;;;14.43;;
61104;SDS011;46987;32.638;-115.438;2023-04-24T12:29:25;35.85;;;14.52;;
61104;SDS011;46987;32.638;-115.438;2023-04-24T12:31:51;32.25;;;13.20;;
61104;SDS011;46987;32.638;-115.438;2023-04-24T12:34:18;33.35;;;12.60;;
61104;SDS011;46987;32.638;-115.438;2023-04-24T12:36:49;24.58;;;12.13;;
61104;SDS011;46987;32.638;-115.438;2023-04-24T12:39:16;22.33;;;10.20;;
61104;SDS011;46987;32.638;-115.438;2023-04-24T12:41:50;28.13;;;11.30;;
61104;SDS011;46987;32.638;-115.438;2023-04-24T12:44:17;21.77;;;9.15;;
61104;SDS011;46987;32.638;-115.438;2023-04-24T12:46:44;20.98;;;9.20;;
61104;SDS011;46987;32.638;-115.438;2023-04-24T12:49:11;29.67;;;8.88;;
61104;SDS011;46987;32.638;-115.438;2023-04-24T12:51:37;24.75;;;8.77;;
61104;SDS011;46987;32.638;-115.438;2023-04-24T12:54:06;26.77;;;8.95;;
61104;SDS011;46987;32.638;-115.438;2023-04-24T12:56:33;17.30;;;7.55;;
61104;SDS011;46987;32.638;-115.438;2023-04-24T12:59:00;23.77;;;8.90;;
61104;SDS011;46987;32.638;-115.438;2023-04-24T13:01:26;27.50;;;6.70;;
61104;SDS011;46987;32.638;-115.438;2023-04-24T13:03:53;19.13;;;7.03;;
61104;SDS011;46987;32.638;-115.438;2023-04-24T13:06:19;20.95;;;7.10;;
61104;SDS011;46987;32.638;-115.438;2023-04-24T13:08:47;25.73;;;7.05;;
61104;SDS011;46987;32.638;-115.438;2023-04-24T13:11:16;17.20;;;6.22;;
61104;SDS011;46987;32.638;-115.438;2023-04-24T13:13:43;21.60;;;5.85;;
61104;SDS011;46987;32.638;-115.438;2023-04-24T13:16:09;20.38;;;4.97;;
61104;SDS011;46987;32.638;-115.438;2023-04-24T13:18:36;12.18;;;4.03;;
61104;SDS011;46987;32.638;-115.438;2023-04-24T13:21:03;14.23;;;4.03;;
61104;SDS011;46987;32.638;-115.438;2023-04-24T13:23:29;20.15;;;4.00;;
61104;SDS011;46987;32.638;-115.438;2023-04-24T13:25:56;18.27;;;3.78;;
61104;SDS011;46987;32.638;-115.438;2023-04-24T13:28:25;19.52;;;3.20;;
61104;SDS011;46987;32.638;-115.438;2023-04-24T13:30:51;10.90;;;3.03;;
61104;SDS011;46987;32.638;-115.438;2023-04-24T13:33:18;15.65;;;3.80;;
61104;SDS011;46987;32.638;-115.438;2023-04-24T13:35:45;14.10;;;3.63;;
61104;SDS011;46987;32.638;-115.438;2023-04-24T13:38:12;17.13;;;3.75;;
61104;SDS011;46987;32.638;-115.438;2023-04-24T13:40:38;21.00;;;5.05;;
61104;SDS011;46987;32.638;-115.438;2023-04-24T13:43:05;14.98;;;3.88;;
61104;SDS011;46987;32.638;-115.438;2023-04-24T13:45:33;16.38;;;3.33;;
61104;SDS011;46987;32.638;-115.438;2023-04-24T13:48:00;14.25;;;4.07;;
61104;SDS011;46987;32.638;-115.438;2023-04-24T13:50:28;21.33;;;4.53;;
61104;SDS011;46987;32.638;-115.438;2023-04-24T13:52:55;15.40;;;4.47;;
61104;SDS011;46987;32.638;-115.438;2023-04-24T13:55:22;19.08;;;5.15;;
61104;SDS011;46987;32.638;-115.438;2023-04-24T13:57:49;14.75;;;3.85;;
61104;SDS011;46987;32.638;-115.438;2023-04-24T14:00:16;15.63;;;4.65;;
61104;SDS011;46987;32.638;-115.438;2023-04-24T14:02:45;18.67;;;4.72;;
61104;SDS011;46987;32.638;-115.438;2023-04-24T14:05:12;21.08;;;5.35;;
61104;SDS011;46987;32.638;-115.438;2023-04-24T14:07:40;24.52;;;4.85;;